sensor_id;sensor_type;location;lat;lon;timestamp;temperature;humidity
13686;DHT22;6915;48.296;8.874;2024-01-30T00:01:02;-1.00;99.90
13686;DHT22;6915;48.296;8.874;2024-01-30T00:03:29;-1.10;99.90
13686;DHT22;6915;48.296;8.874;2024-01-30T00:05:56;-0.70;99.90
13686;DHT22;6915;48.296;8.874;2024-01-30T00:08:23;-0.90;99.90
13686;DHT22;6915;48.296;8.874;2024-01-30T00:10:51;-0.90;99.90
13686;DHT22;6915;48.296;8.874;2024-01-30T00:13:18;-0.80;99.90
13686;DHT22;6915;48.296;8.874;2024-01-30T00:15:45;-0.80;99.90
13686;DHT22;6915;48.296;8.874;2024-01-30T00:18:12;-0.80;99.90
13686;DHT22;6915;48.296;8.874;2024-01-30T00:20:39;-0.70;99.90
13686;DHT22;6915;48.296;8.874;2024-01-30T00:23:06;-0.30;99.90
13686;DHT22;6915;48.296;8.874;2024-01-30T00:25:33;-0.10;99.90
13686;DHT22;6915;48.296;8.874;2024-01-30T00:28:01;0.10;99.90
13686;DHT22;6915;48.296;8.874;2024-01-30T00:30:28;-0.10;99.90
13686;DHT22;6915;48.296;8.874;2024-01-30T00:32:55;-0.10;99.90
13686;DHT22;6915;48.296;8.874;2024-01-30T00:35:22;-0.20;99.90
13686;DHT22;6915;48.296;8.874;2024-01-30T00:37:49;-0.50;99.90
13686;DHT22;6915;48.296;8.874;2024-01-30T00:40:16;-0.60;99.90
13686;DHT22;6915;48.296;8.874;2024-01-30T00:42:43;-0.70;99.90
13686;DHT22;6915;48.296;8.874;2024-01-30T00:45:13;-0.80;99.90
13686;DHT22;6915;48.296;8.874;2024-01-30T00:47:40;-1.00;99.90
13686;DHT22;6915;48.296;8.874;2024-01-30T00:50:08;-1.00;99.90
13686;DHT22;6915;48.296;8.874;2024-01-30T00:52:35;-1.00;99.90
13686;DHT22;6915;48.296;8.874;2024-01-30T00:55:02;-1.00;99.90
13686;DHT22;6915;48.296;8.874;2024-01-30T00:57:29;-0.90;99.90
13686;DHT22;6915;48.296;8.874;2024-01-30T00:59:57;-0.90;99.90
13686;DHT22;6915;48.296;8.874;2024-01-30T01:02:25;-0.90;99.90
13686;DHT22;6915;48.296;8.874;2024-01-30T01:04:52;-0.90;99.90
13686;DHT22;6915;48.296;8.874;2024-01-30T01:07:19;-0.90;99.90
13686;DHT22;6915;48.296;8.874;2024-01-30T01:09:45;-0.80;99.90
13686;DHT22;6915;48.296;8.874;2024-01-30T01:12:11;-0.80;99.90
13686;DHT22;6915;48.296;8.874;2024-01-30T01:14:38;-0.90;99.90
13686;DHT22;6915;48.296;8.874;2024-01-30T01:17:05;-0.90;99.90
13686;DHT22;6915;48.296;8.874;2024-01-30T01:19:33;-0.90;99.90
13686;DHT22;6915;48.296;8.874;2024-01-30T01:22:00;-0.90;99.90
13686;DHT22;6915;48.296;8.874;2024-01-30T01:24:29;-1.00;99.90
13686;DHT22;6915;48.296;8.874;2024-01-30T01:26:56;-1.00;99.90
13686;DHT22;6915;48.296;8.874;2024-01-30T01:29:23;-1.00;99.90
13686;DHT22;6915;48.296;8.874;2024-01-30T01:31:54;-1.00;99.90
13686;DHT22;6915;48.296;8.874;2024-01-30T01:34:21;-1.10;99.90
13686;DHT22;6915;48.296;8.874;2024-01-30T01:36:50;-1.10;99.90
13686;DHT22;6915;48.296;8.874;2024-01-30T01:39:21;-1.10;99.90
13686;DHT22;6915;48.296;8.874;2024-01-30T01:41:49;-1.10;99.90
13686;DHT22;6915;48.296;8.874;2024-01-30T01:44:16;-1.10;99.90
13686;DHT22;6915;48.296;8.874;2024-01-30T01:46:43;-1.10;99.90
13686;DHT22;6915;48.296;8.874;2024-01-30T01:49:11;-1.10;99.90
13686;DHT22;6915;48.296;8.874;2024-01-30T01:51:38;-1.20;99.90
13686;DHT22;6915;48.296;8.874;2024-01-30T01:54:08;-1.10;99.90
13686;DHT22;6915;48.296;8.874;2024-01-30T01:56:35;-1.20;99.90
13686;DHT22;6915;48.296;8.874;2024-01-30T01:59:05;-1.20;99.90
13686;DHT22;6915;48.296;8.874;2024-01-30T02:01:33;-1.00;99.90
13686;DHT22;6915;48.296;8.874;2024-01-30T02:04:00;-1.20;99.90
13686;DHT22;6915;48.296;8.874;2024-01-30T02:06:27;-1.20;99.90
13686;DHT22;6915;48.296;8.874;2024-01-30T02:08:54;-1.20;99.90
13686;DHT22;6915;48.296;8.874;2024-01-30T02:11:23;-1.30;99.90
13686;DHT22;6915;48.296;8.874;2024-01-30T02:13:50;-1.20;99.90
13686;DHT22;6915;48.296;8.874;2024-01-30T02:16:17;-1.30;99.90
13686;DHT22;6915;48.296;8.874;2024-01-30T02:18:43;-1.20;99.90
13686;DHT22;6915;48.296;8.874;2024-01-30T02:21:15;-1.30;99.90
13686;DHT22;6915;48.296;8.874;2024-01-30T02:23:43;-1.30;99.90
13686;DHT22;6915;48.296;8.874;2024-01-30T02:26:10;-1.40;99.90
13686;DHT22;6915;48.296;8.874;2024-01-30T02:28:37;-1.50;99.90
13686;DHT22;6915;48.296;8.874;2024-01-30T02:31:05;-1.50;99.90
13686;DHT22;6915;48.296;8.874;2024-01-30T02:33:31;-1.50;99.90
13686;DHT22;6915;48.296;8.874;2024-01-30T02:35:58;-1.50;99.90
13686;DHT22;6915;48.296;8.874;2024-01-30T02:38:27;-1.50;99.90
13686;DHT22;6915;48.296;8.874;2024-01-30T02:40:54;-1.40;99.90
13686;DHT22;6915;48.296;8.874;2024-01-30T02:43:22;-1.40;99.90
13686;DHT22;6915;48.296;8.874;2024-01-30T02:45:49;-1.60;99.90
13686;DHT22;6915;48.296;8.874;2024-01-30T02:48:15;-1.70;99.90
13686;DHT22;6915;48.296;8.874;2024-01-30T02:50:42;-1.80;99.90
13686;DHT22;6915;48.296;8.874;2024-01-30T02:53:09;-1.80;99.90
13686;DHT22;6915;48.296;8.874;2024-01-30T02:55:38;-1.70;99.90
13686;DHT22;6915;48.296;8.874;2024-01-30T02:58:04;-1.70;99.90
13686;DHT22;6915;48.296;8.874;2024-01-30T03:00:32;-1.80;99.90
13686;DHT22;6915;48.296;8.874;2024-01-30T03:02:59;-1.70;99.90
13686;DHT22;6915;48.296;8.874;2024-01-30T03:05:26;-1.70;99.90
13686;DHT22;6915;48.296;8.874;2024-01-30T03:07:52;-1.70;99.90
13686;DHT22;6915;48.296;8.874;2024-01-30T03:10:19;-1.80;99.90
13686;DHT22;6915;48.296;8.874;2024-01-30T03:12:48;-1.60;99.90
13686;DHT22;6915;48.296;8.874;2024-01-30T03:15:14;-1.80;99.90
13686;DHT22;6915;48.296;8.874;2024-01-30T03:17:41;-1.90;99.90
13686;DHT22;6915;48.296;8.874;2024-01-30T03:20:09;-1.90;99.90
13686;DHT22;6915;48.296;8.874;2024-01-30T03:22:36;-1.90;99.90
13686;DHT22;6915;48.296;8.874;2024-01-30T03:25:03;-1.80;99.90
13686;DHT22;6915;48.296;8.874;2024-01-30T03:27:30;-1.80;99.90
13686;DHT22;6915;48.296;8.874;2024-01-30T03:29:58;-1.80;99.90
13686;DHT22;6915;48.296;8.874;2024-01-30T03:32:25;-1.80;99.90
13686;DHT22;6915;48.296;8.874;2024-01-30T03:34:52;-1.80;99.90
13686;DHT22;6915;48.296;8.874;2024-01-30T03:37:19;-1.90;99.90
13686;DHT22;6915;48.296;8.874;2024-01-30T03:39:46;-1.90;99.90
13686;DHT22;6915;48.296;8.874;2024-01-30T03:42:13;-1.90;99.90
13686;DHT22;6915;48.296;8.874;2024-01-30T03:44:39;-1.90;99.90
13686;DHT22;6915;48.296;8.874;2024-01-30T03:47:08;-1.80;99.90
13686;DHT22;6915;48.296;8.874;2024-01-30T03:49:35;-1.90;99.90
13686;DHT22;6915;48.296;8.874;2024-01-30T03:52:02;-1.90;99.90
13686;DHT22;6915;48.296;8.874;2024-01-30T03:54:28;-1.90;99.90
13686;DHT22;6915;48.296;8.874;2024-01-30T03:56:55;-1.90;99.90
13686;DHT22;6915;48.296;8.874;2024-01-30T03:59:22;-1.90;99.90
13686;DHT22;6915;48.296;8.874;2024-01-30T04:01:49;-1.90;99.90
13686;DHT22;6915;48.296;8.874;2024-01-30T04:04:18;-1.80;99.90
13686;DHT22;6915;48.296;8.874;2024-01-30T04:06:45;-1.80;99.90
13686;DHT22;6915;48.296;8.874;2024-01-30T04:09:12;-1.80;99.90
13686;DHT22;6915;48.296;8.874;2024-01-30T04:11:40;-1.70;99.90
13686;DHT22;6915;48.296;8.874;2024-01-30T04:14:07;-1.60;99.90
13686;DHT22;6915;48.296;8.874;2024-01-30T04:16:34;-1.70;99.90
13686;DHT22;6915;48.296;8.874;2024-01-30T04:19:01;-1.70;99.90
13686;DHT22;6915;48.296;8.874;2024-01-30T04:21:30;-1.70;99.90
13686;DHT22;6915;48.296;8.874;2024-01-30T04:23:56;-1.60;99.90
13686;DHT22;6915;48.296;8.874;2024-01-30T04:26:23;-1.50;99.90
13686;DHT22;6915;48.296;8.874;2024-01-30T04:28:53;-1.50;99.90
13686;DHT22;6915;48.296;8.874;2024-01-30T05:46:25;-1.80;99.90
13686;DHT22;6915;48.296;8.874;2024-01-30T05:48:52;-1.80;99.90
13686;DHT22;6915;48.296;8.874;2024-01-30T05:51:19;-1.90;99.90
13686;DHT22;6915;48.296;8.874;2024-01-30T05:53:46;-1.90;99.90
13686;DHT22;6915;48.296;8.874;2024-01-30T05:56:13;-1.90;99.90
13686;DHT22;6915;48.296;8.874;2024-01-30T05:58:41;-1.90;99.90
13686;DHT22;6915;48.296;8.874;2024-01-30T06:01:08;-1.90;99.90
13686;DHT22;6915;48.296;8.874;2024-01-30T06:03:37;-1.80;99.90
13686;DHT22;6915;48.296;8.874;2024-01-30T06:06:04;-1.80;99.90
13686;DHT22;6915;48.296;8.874;2024-01-30T06:08:31;-1.80;99.90
13686;DHT22;6915;48.296;8.874;2024-01-30T06:10:59;-1.90;99.90
13686;DHT22;6915;48.296;8.874;2024-01-30T06:13:27;-2.00;99.90
13686;DHT22;6915;48.296;8.874;2024-01-30T06:15:57;-2.00;99.90
13686;DHT22;6915;48.296;8.874;2024-01-30T06:18:24;-2.00;99.90
13686;DHT22;6915;48.296;8.874;2024-01-30T06:20:54;-2.00;99.90
13686;DHT22;6915;48.296;8.874;2024-01-30T06:23:21;-1.90;99.90
13686;DHT22;6915;48.296;8.874;2024-01-30T06:25:48;-1.90;99.90
13686;DHT22;6915;48.296;8.874;2024-01-30T06:28:15;-1.80;99.90
13686;DHT22;6915;48.296;8.874;2024-01-30T06:30:42;-1.70;99.90
13686;DHT22;6915;48.296;8.874;2024-01-30T06:33:12;-1.70;99.90
13686;DHT22;6915;48.296;8.874;2024-01-30T06:35:40;-1.80;99.90
13686;DHT22;6915;48.296;8.874;2024-01-30T06:38:08;-1.80;99.90
13686;DHT22;6915;48.296;8.874;2024-01-30T06:40:35;-1.80;99.90
13686;DHT22;6915;48.296;8.874;2024-01-30T06:43:03;-1.80;99.90
13686;DHT22;6915;48.296;8.874;2024-01-30T06:45:30;-1.80;99.90
13686;DHT22;6915;48.296;8.874;2024-01-30T06:47:57;-1.80;99.90
13686;DHT22;6915;48.296;8.874;2024-01-30T06:50:24;-1.80;99.90
13686;DHT22;6915;48.296;8.874;2024-01-30T06:52:51;-1.80;99.90
13686;DHT22;6915;48.296;8.874;2024-01-30T06:55:19;-1.90;99.90
13686;DHT22;6915;48.296;8.874;2024-01-30T06:57:49;-1.90;99.90
13686;DHT22;6915;48.296;8.874;2024-01-30T07:00:17;-1.90;99.90
13686;DHT22;6915;48.296;8.874;2024-01-30T07:02:45;-2.00;99.90
13686;DHT22;6915;48.296;8.874;2024-01-30T07:05:12;-2.00;99.90
13686;DHT22;6915;48.296;8.874;2024-01-30T07:07:38;-2.00;99.90
13686;DHT22;6915;48.296;8.874;2024-01-30T07:10:07;-2.00;99.90
13686;DHT22;6915;48.296;8.874;2024-01-30T07:12:35;-2.10;99.90
13686;DHT22;6915;48.296;8.874;2024-01-30T07:15:03;-2.10;99.90
13686;DHT22;6915;48.296;8.874;2024-01-30T07:17:30;-2.10;99.90
13686;DHT22;6915;48.296;8.874;2024-01-30T07:19:56;-2.10;99.90
13686;DHT22;6915;48.296;8.874;2024-01-30T07:22:24;-2.00;99.90
13686;DHT22;6915;48.296;8.874;2024-01-30T07:24:51;-1.80;99.90
13686;DHT22;6915;48.296;8.874;2024-01-30T07:27:18;-2.00;99.90
13686;DHT22;6915;48.296;8.874;2024-01-30T07:29:46;-1.90;99.90
13686;DHT22;6915;48.296;8.874;2024-01-30T07:32:13;-1.90;99.90
13686;DHT22;6915;48.296;8.874;2024-01-30T07:34:41;-1.90;99.90
13686;DHT22;6915;48.296;8.874;2024-01-30T07:37:09;-1.90;99.90
13686;DHT22;6915;48.296;8.874;2024-01-30T07:39:38;-1.90;99.90
13686;DHT22;6915;48.296;8.874;2024-01-30T07:42:06;-1.70;99.90
13686;DHT22;6915;48.296;8.874;2024-01-30T07:44:33;-1.70;99.90
13686;DHT22;6915;48.296;8.874;2024-01-30T07:47:02;-1.50;99.90
13686;DHT22;6915;48.296;8.874;2024-01-30T07:49:29;-1.50;99.90
13686;DHT22;6915;48.296;8.874;2024-01-30T07:52:01;-1.40;99.90
13686;DHT22;6915;48.296;8.874;2024-01-30T07:54:31;-1.40;99.90
13686;DHT22;6915;48.296;8.874;2024-01-30T07:57:00;-1.20;99.90
13686;DHT22;6915;48.296;8.874;2024-01-30T07:59:28;-1.10;99.90
13686;DHT22;6915;48.296;8.874;2024-01-30T08:01:55;-1.00;99.90
13686;DHT22;6915;48.296;8.874;2024-01-30T08:04:23;-0.90;99.90
13686;DHT22;6915;48.296;8.874;2024-01-30T08:06:50;-0.70;99.90
13686;DHT22;6915;48.296;8.874;2024-01-30T08:09:17;-0.50;99.90
13686;DHT22;6915;48.296;8.874;2024-01-30T08:11:44;-0.40;99.90
13686;DHT22;6915;48.296;8.874;2024-01-30T08:14:11;-0.30;99.90
13686;DHT22;6915;48.296;8.874;2024-01-30T08:16:39;-0.30;99.90
13686;DHT22;6915;48.296;8.874;2024-01-30T08:19:06;-0.40;99.90
13686;DHT22;6915;48.296;8.874;2024-01-30T08:21:35;-0.40;99.90
13686;DHT22;6915;48.296;8.874;2024-01-30T08:24:03;-0.30;99.90
13686;DHT22;6915;48.296;8.874;2024-01-30T08:26:31;-0.20;99.90
13686;DHT22;6915;48.296;8.874;2024-01-30T08:28:58;-0.20;99.90
13686;DHT22;6915;48.296;8.874;2024-01-30T08:31:26;-0.10;99.90
13686;DHT22;6915;48.296;8.874;2024-01-30T08:33:53;0.00;99.90
13686;DHT22;6915;48.296;8.874;2024-01-30T08:36:20;0.00;99.90
13686;DHT22;6915;48.296;8.874;2024-01-30T08:38:49;0.30;99.90
13686;DHT22;6915;48.296;8.874;2024-01-30T08:41:16;0.30;99.90
13686;DHT22;6915;48.296;8.874;2024-01-30T08:43:43;0.40;99.90
13686;DHT22;6915;48.296;8.874;2024-01-30T08:46:11;0.50;99.90
13686;DHT22;6915;48.296;8.874;2024-01-30T08:48:38;0.60;99.90
13686;DHT22;6915;48.296;8.874;2024-01-30T08:51:05;0.80;99.90
13686;DHT22;6915;48.296;8.874;2024-01-30T08:53:34;1.00;99.90
13686;DHT22;6915;48.296;8.874;2024-01-30T08:56:05;1.20;99.90
13686;DHT22;6915;48.296;8.874;2024-01-30T08:58:32;1.40;99.90
13686;DHT22;6915;48.296;8.874;2024-01-30T09:01:00;1.50;99.90
13686;DHT22;6915;48.296;8.874;2024-01-30T09:03:29;1.70;99.90
13686;DHT22;6915;48.296;8.874;2024-01-30T09:05:56;1.80;99.90
13686;DHT22;6915;48.296;8.874;2024-01-30T09:08:23;1.90;99.90
13686;DHT22;6915;48.296;8.874;2024-01-30T09:10:51;2.10;99.90
13686;DHT22;6915;48.296;8.874;2024-01-30T09:13:19;2.30;99.90
13686;DHT22;6915;48.296;8.874;2024-01-30T09:15:46;2.50;99.90
13686;DHT22;6915;48.296;8.874;2024-01-30T09:18:14;2.70;99.90
13686;DHT22;6915;48.296;8.874;2024-01-30T09:20:41;3.20;99.90
13686;DHT22;6915;48.296;8.874;2024-01-30T09:23:08;4.00;99.90
13686;DHT22;6915;48.296;8.874;2024-01-30T09:25:36;4.70;99.90
13686;DHT22;6915;48.296;8.874;2024-01-30T09:28:04;5.30;99.90
13686;DHT22;6915;48.296;8.874;2024-01-30T09:30:33;5.60;99.90
13686;DHT22;6915;48.296;8.874;2024-01-30T09:33:00;5.90;99.90
13686;DHT22;6915;48.296;8.874;2024-01-30T09:35:27;6.20;99.90
13686;DHT22;6915;48.296;8.874;2024-01-30T09:37:55;6.50;99.90
13686;DHT22;6915;48.296;8.874;2024-01-30T09:40:23;6.80;99.90
13686;DHT22;6915;48.296;8.874;2024-01-30T09:42:51;7.00;99.90
13686;DHT22;6915;48.296;8.874;2024-01-30T09:45:19;7.30;99.90
13686;DHT22;6915;48.296;8.874;2024-01-30T09:47:48;7.50;99.90
13686;DHT22;6915;48.296;8.874;2024-01-30T09:50:16;7.70;99.90
13686;DHT22;6915;48.296;8.874;2024-01-30T09:52:44;7.80;99.90
13686;DHT22;6915;48.296;8.874;2024-01-30T09:55:14;7.90;99.90
13686;DHT22;6915;48.296;8.874;2024-01-30T09:57:42;8.10;99.90
13686;DHT22;6915;48.296;8.874;2024-01-30T10:00:10;8.30;99.90
13686;DHT22;6915;48.296;8.874;2024-01-30T10:02:38;8.30;99.90
13686;DHT22;6915;48.296;8.874;2024-01-30T10:05:08;8.50;99.90
13686;DHT22;6915;48.296;8.874;2024-01-30T10:07:35;8.70;99.90
13686;DHT22;6915;48.296;8.874;2024-01-30T10:10:04;8.80;99.90
13686;DHT22;6915;48.296;8.874;2024-01-30T10:12:32;8.90;99.90
13686;DHT22;6915;48.296;8.874;2024-01-30T10:14:59;9.00;99.90
13686;DHT22;6915;48.296;8.874;2024-01-30T10:17:26;9.20;99.90
13686;DHT22;6915;48.296;8.874;2024-01-30T10:19:54;9.30;99.90
13686;DHT22;6915;48.296;8.874;2024-01-30T10:22:23;9.40;99.90
13686;DHT22;6915;48.296;8.874;2024-01-30T10:24:50;9.50;99.90
13686;DHT22;6915;48.296;8.874;2024-01-30T10:27:25;9.70;99.90
13686;DHT22;6915;48.296;8.874;2024-01-30T10:29:52;9.80;99.90
13686;DHT22;6915;48.296;8.874;2024-01-30T10:32:20;9.90;99.90
13686;DHT22;6915;48.296;8.874;2024-01-30T10:34:47;10.00;99.90
13686;DHT22;6915;48.296;8.874;2024-01-30T10:37:15;10.10;99.90
13686;DHT22;6915;48.296;8.874;2024-01-30T10:39:45;10.20;99.90
13686;DHT22;6915;48.296;8.874;2024-01-30T10:42:14;10.30;99.90
13686;DHT22;6915;48.296;8.874;2024-01-30T10:44:48;10.40;99.90
13686;DHT22;6915;48.296;8.874;2024-01-30T10:47:27;10.60;99.90
13686;DHT22;6915;48.296;8.874;2024-01-30T10:49:55;10.70;99.90
13686;DHT22;6915;48.296;8.874;2024-01-30T10:52:23;10.80;99.90
13686;DHT22;6915;48.296;8.874;2024-01-30T10:54:54;10.80;99.90
13686;DHT22;6915;48.296;8.874;2024-01-30T10:57:23;10.90;99.90
13686;DHT22;6915;48.296;8.874;2024-01-30T10:59:53;10.90;99.90
13686;DHT22;6915;48.296;8.874;2024-01-30T11:02:22;10.90;99.90
13686;DHT22;6915;48.296;8.874;2024-01-30T11:04:54;10.90;99.90
13686;DHT22;6915;48.296;8.874;2024-01-30T11:07:24;10.90;99.90
13686;DHT22;6915;48.296;8.874;2024-01-30T11:09:54;11.00;99.90
13686;DHT22;6915;48.296;8.874;2024-01-30T11:12:27;11.00;99.90
13686;DHT22;6915;48.296;8.874;2024-01-30T11:15:04;11.10;99.90
13686;DHT22;6915;48.296;8.874;2024-01-30T11:17:41;11.10;99.90
13686;DHT22;6915;48.296;8.874;2024-01-30T11:20:10;11.10;99.90
13686;DHT22;6915;48.296;8.874;2024-01-30T11:22:41;11.10;99.90
13686;DHT22;6915;48.296;8.874;2024-01-30T11:25:13;11.20;99.90
13686;DHT22;6915;48.296;8.874;2024-01-30T11:27:41;11.20;99.90
13686;DHT22;6915;48.296;8.874;2024-01-30T11:30:08;11.40;99.90
13686;DHT22;6915;48.296;8.874;2024-01-30T11:32:35;11.30;99.90
13686;DHT22;6915;48.296;8.874;2024-01-30T11:35:04;11.30;99.90
13686;DHT22;6915;48.296;8.874;2024-01-30T11:37:32;11.40;99.90
13686;DHT22;6915;48.296;8.874;2024-01-30T11:40:04;11.50;99.90
13686;DHT22;6915;48.296;8.874;2024-01-30T11:42:32;11.60;99.90
13686;DHT22;6915;48.296;8.874;2024-01-30T11:45:01;11.60;99.90
13686;DHT22;6915;48.296;8.874;2024-01-30T11:47:29;11.70;99.90
13686;DHT22;6915;48.296;8.874;2024-01-30T11:49:56;11.80;99.90
13686;DHT22;6915;48.296;8.874;2024-01-30T11:52:23;11.80;99.90
13686;DHT22;6915;48.296;8.874;2024-01-30T11:54:50;11.80;99.90
13686;DHT22;6915;48.296;8.874;2024-01-30T11:57:17;11.80;99.90
13686;DHT22;6915;48.296;8.874;2024-01-30T12:02:19;11.90;99.90
13686;DHT22;6915;48.296;8.874;2024-01-30T12:04:46;11.90;99.90
13686;DHT22;6915;48.296;8.874;2024-01-30T12:07:13;11.90;99.90
13686;DHT22;6915;48.296;8.874;2024-01-30T12:09:41;11.90;99.90
13686;DHT22;6915;48.296;8.874;2024-01-30T12:12:08;11.80;99.90
13686;DHT22;6915;48.296;8.874;2024-01-30T12:14:38;11.80;99.90
13686;DHT22;6915;48.296;8.874;2024-01-30T12:17:05;11.80;99.90
13686;DHT22;6915;48.296;8.874;2024-01-30T12:19:35;11.60;99.90
13686;DHT22;6915;48.296;8.874;2024-01-30T12:22:02;11.80;99.90
13686;DHT22;6915;48.296;8.874;2024-01-30T12:24:29;11.80;99.90
13686;DHT22;6915;48.296;8.874;2024-01-30T12:26:57;11.90;99.90
13686;DHT22;6915;48.296;8.874;2024-01-30T12:29:24;11.90;99.90
13686;DHT22;6915;48.296;8.874;2024-01-30T12:31:53;11.80;99.90
13686;DHT22;6915;48.296;8.874;2024-01-30T12:34:20;11.80;99.90
13686;DHT22;6915;48.296;8.874;2024-01-30T12:36:48;11.70;99.90
13686;DHT22;6915;48.296;8.874;2024-01-30T12:39:15;11.90;99.90
13686;DHT22;6915;48.296;8.874;2024-01-30T12:41:43;11.90;99.90
13686;DHT22;6915;48.296;8.874;2024-01-30T12:44:10;12.00;99.90
13686;DHT22;6915;48.296;8.874;2024-01-30T12:46:37;12.10;99.90
13686;DHT22;6915;48.296;8.874;2024-01-30T12:49:03;12.30;99.90
13686;DHT22;6915;48.296;8.874;2024-01-30T12:51:34;12.20;99.90
13686;DHT22;6915;48.296;8.874;2024-01-30T12:54:05;12.20;99.90
13686;DHT22;6915;48.296;8.874;2024-01-30T12:56:32;12.20;99.90
13686;DHT22;6915;48.296;8.874;2024-01-30T12:59:00;12.30;99.90
13686;DHT22;6915;48.296;8.874;2024-01-30T13:01:27;12.30;99.90
13686;DHT22;6915;48.296;8.874;2024-01-30T13:03:53;12.30;99.90
13686;DHT22;6915;48.296;8.874;2024-01-30T13:06:22;12.40;99.90
13686;DHT22;6915;48.296;8.874;2024-01-30T13:08:49;12.40;99.90
13686;DHT22;6915;48.296;8.874;2024-01-30T13:11:18;12.30;99.90
13686;DHT22;6915;48.296;8.874;2024-01-30T13:13:44;12.10;99.90
13686;DHT22;6915;48.296;8.874;2024-01-30T13:16:11;12.30;99.90
13686;DHT22;6915;48.296;8.874;2024-01-30T13:18:38;12.30;99.90
13686;DHT22;6915;48.296;8.874;2024-01-30T13:21:06;12.40;99.90
13686;DHT22;6915;48.296;8.874;2024-01-30T13:23:33;12.50;99.90
13686;DHT22;6915;48.296;8.874;2024-01-30T13:26:00;12.60;99.90
13686;DHT22;6915;48.296;8.874;2024-01-30T13:28:29;12.60;99.90
13686;DHT22;6915;48.296;8.874;2024-01-30T13:30:56;12.50;99.90
13686;DHT22;6915;48.296;8.874;2024-01-30T13:33:23;12.50;99.90
13686;DHT22;6915;48.296;8.874;2024-01-30T13:35:49;12.40;99.90
13686;DHT22;6915;48.296;8.874;2024-01-30T13:38:16;12.40;99.90
13686;DHT22;6915;48.296;8.874;2024-01-30T13:40:43;12.50;99.90
13686;DHT22;6915;48.296;8.874;2024-01-30T13:43:10;12.60;99.90
13686;DHT22;6915;48.296;8.874;2024-01-30T13:45:39;12.50;99.90
13686;DHT22;6915;48.296;8.874;2024-01-30T13:48:07;12.60;99.90
13686;DHT22;6915;48.296;8.874;2024-01-30T13:50:34;12.60;99.90
13686;DHT22;6915;48.296;8.874;2024-01-30T13:53:03;12.70;99.90
13686;DHT22;6915;48.296;8.874;2024-01-30T13:55:30;12.60;99.90
13686;DHT22;6915;48.296;8.874;2024-01-30T13:57:57;12.50;99.90
13686;DHT22;6915;48.296;8.874;2024-01-30T14:00:24;12.40;99.90
13686;DHT22;6915;48.296;8.874;2024-01-30T14:02:53;12.40;99.90
13686;DHT22;6915;48.296;8.874;2024-01-30T14:05:21;12.60;99.90
13686;DHT22;6915;48.296;8.874;2024-01-30T14:07:48;12.60;99.90
13686;DHT22;6915;48.296;8.874;2024-01-30T14:10:15;12.60;99.90
13686;DHT22;6915;48.296;8.874;2024-01-30T14:12:43;12.60;99.90
13686;DHT22;6915;48.296;8.874;2024-01-30T14:15:10;12.70;99.90
13686;DHT22;6915;48.296;8.874;2024-01-30T14:17:38;12.60;99.90
13686;DHT22;6915;48.296;8.874;2024-01-30T14:20:07;12.60;99.90
13686;DHT22;6915;48.296;8.874;2024-01-30T14:22:34;12.60;99.90
13686;DHT22;6915;48.296;8.874;2024-01-30T14:25:01;12.50;99.90
13686;DHT22;6915;48.296;8.874;2024-01-30T14:27:29;12.40;99.90
13686;DHT22;6915;48.296;8.874;2024-01-30T14:29:56;12.40;99.90
13686;DHT22;6915;48.296;8.874;2024-01-30T14:32:23;12.40;99.90
13686;DHT22;6915;48.296;8.874;2024-01-30T14:34:51;12.50;99.90
13686;DHT22;6915;48.296;8.874;2024-01-30T14:37:20;12.20;99.90
13686;DHT22;6915;48.296;8.874;2024-01-30T14:39:47;12.00;99.90
13686;DHT22;6915;48.296;8.874;2024-01-30T14:42:14;12.00;99.90
13686;DHT22;6915;48.296;8.874;2024-01-30T14:44:42;12.00;99.90
13686;DHT22;6915;48.296;8.874;2024-01-30T14:47:09;11.80;99.90
13686;DHT22;6915;48.296;8.874;2024-01-30T14:49:36;11.60;99.90
13686;DHT22;6915;48.296;8.874;2024-01-30T14:52:03;11.60;99.90
13686;DHT22;6915;48.296;8.874;2024-01-30T14:54:32;11.60;99.90
13686;DHT22;6915;48.296;8.874;2024-01-30T14:56:59;11.50;99.90
13686;DHT22;6915;48.296;8.874;2024-01-30T14:59:26;11.50;99.90
13686;DHT22;6915;48.296;8.874;2024-01-30T15:01:53;11.40;99.90
13686;DHT22;6915;48.296;8.874;2024-01-30T15:04:20;11.20;99.90
13686;DHT22;6915;48.296;8.874;2024-01-30T15:06:47;11.10;99.90
13686;DHT22;6915;48.296;8.874;2024-01-30T15:09:15;11.00;99.90
13686;DHT22;6915;48.296;8.874;2024-01-30T15:11:44;10.80;99.90
13686;DHT22;6915;48.296;8.874;2024-01-30T15:14:11;10.80;99.90
13686;DHT22;6915;48.296;8.874;2024-01-30T15:16:38;10.60;99.90
13686;DHT22;6915;48.296;8.874;2024-01-30T15:19:05;10.60;99.90
13686;DHT22;6915;48.296;8.874;2024-01-30T15:21:32;10.60;99.90
13686;DHT22;6915;48.296;8.874;2024-01-30T15:23:59;10.30;99.90
13686;DHT22;6915;48.296;8.874;2024-01-30T15:26:25;10.30;99.90
13686;DHT22;6915;48.296;8.874;2024-01-30T15:28:54;10.20;99.90
13686;DHT22;6915;48.296;8.874;2024-01-30T15:31:21;10.20;99.90
13686;DHT22;6915;48.296;8.874;2024-01-30T15:33:47;10.00;99.90
13686;DHT22;6915;48.296;8.874;2024-01-30T15:36:14;9.90;99.90
13686;DHT22;6915;48.296;8.874;2024-01-30T15:38:41;9.80;99.90
13686;DHT22;6915;48.296;8.874;2024-01-30T15:41:09;9.70;99.90
13686;DHT22;6915;48.296;8.874;2024-01-30T15:43:36;9.70;99.90
13686;DHT22;6915;48.296;8.874;2024-01-30T15:46:05;9.60;99.90
13686;DHT22;6915;48.296;8.874;2024-01-30T15:48:31;9.50;99.90
13686;DHT22;6915;48.296;8.874;2024-01-30T15:50:59;9.40;99.90
13686;DHT22;6915;48.296;8.874;2024-01-30T15:53:26;9.20;99.90
13686;DHT22;6915;48.296;8.874;2024-01-30T15:55:53;9.10;99.90
13686;DHT22;6915;48.296;8.874;2024-01-30T15:58:20;9.00;99.90
13686;DHT22;6915;48.296;8.874;2024-01-30T16:00:47;8.90;99.90
13686;DHT22;6915;48.296;8.874;2024-01-30T16:03:15;8.70;99.90
13686;DHT22;6915;48.296;8.874;2024-01-30T16:05:42;8.70;99.90
13686;DHT22;6915;48.296;8.874;2024-01-30T16:08:09;8.80;99.90
13686;DHT22;6915;48.296;8.874;2024-01-30T16:10:36;8.40;99.90
13686;DHT22;6915;48.296;8.874;2024-01-30T16:13:03;8.10;99.90
13686;DHT22;6915;48.296;8.874;2024-01-30T16:15:30;8.10;99.90
13686;DHT22;6915;48.296;8.874;2024-01-30T16:17:57;8.00;99.90
13686;DHT22;6915;48.296;8.874;2024-01-30T16:20:25;7.80;99.90
13686;DHT22;6915;48.296;8.874;2024-01-30T16:22:52;7.70;99.90
13686;DHT22;6915;48.296;8.874;2024-01-30T16:25:20;7.70;99.90
13686;DHT22;6915;48.296;8.874;2024-01-30T16:27:48;7.50;99.90
13686;DHT22;6915;48.296;8.874;2024-01-30T16:30:15;7.40;99.90
13686;DHT22;6915;48.296;8.874;2024-01-30T16:32:44;7.20;99.90
13686;DHT22;6915;48.296;8.874;2024-01-30T16:35:11;7.20;99.90
13686;DHT22;6915;48.296;8.874;2024-01-30T16:37:39;7.10;99.90
13686;DHT22;6915;48.296;8.874;2024-01-30T16:40:08;7.00;99.90
13686;DHT22;6915;48.296;8.874;2024-01-30T16:42:35;6.90;99.90
13686;DHT22;6915;48.296;8.874;2024-01-30T16:45:02;6.90;99.90
13686;DHT22;6915;48.296;8.874;2024-01-30T16:47:29;6.90;99.90
13686;DHT22;6915;48.296;8.874;2024-01-30T16:49:56;7.00;99.90
13686;DHT22;6915;48.296;8.874;2024-01-30T16:52:23;6.70;99.90
13686;DHT22;6915;48.296;8.874;2024-01-30T16:54:52;6.80;99.90
13686;DHT22;6915;48.296;8.874;2024-01-30T16:57:19;6.70;99.90
13686;DHT22;6915;48.296;8.874;2024-01-30T16:59:46;6.60;99.90
13686;DHT22;6915;48.296;8.874;2024-01-30T17:02:13;6.40;99.90
13686;DHT22;6915;48.296;8.874;2024-01-30T17:04:40;6.40;99.90
13686;DHT22;6915;48.296;8.874;2024-01-30T17:07:07;6.40;99.90
13686;DHT22;6915;48.296;8.874;2024-01-30T17:09:34;6.20;99.90